Time;durP1;ratioP1;P1;durP2;ratioP2;P2;SDS_P1;SDS_P2;PMS_P1;PMS_P2;Temp;Humidity;BMP_temperature;BMP_pressure;BME280_temperature;BME280_humidity;BME280_pressure;Samples;Min_cycle;Max_cycle;Signal;HPM_P1;HPM_P2
2023/04/30 00:00:35;;;;;;;7.88;6.68;;;18.40;96.70;;;;;;4941045;28;20044;-74
2023/04/30 00:03:03;;;;;;;9.27;6.53;;;18.30;96.70;;;;;;4940551;28;20098;-75
2023/04/30 00:05:31;;;;;;;8.93;7.53;;;18.30;96.70;;;;;;4943546;28;20070;-75
2023/04/30 00:08:02;;;;;;;8.70;6.85;;;18.30;96.70;;;;;;4939994;28;20134;-75
2023/04/30 00:10:30;;;;;;;9.38;6.43;;;18.20;96.70;;;;;;4942074;28;20052;-75
2023/04/30 00:12:58;;;;;;;9.38;6.55;;;18.20;96.70;;;;;;4943552;28;20035;-75
2023/04/30 00:15:26;;;;;;;7.18;6.22;;;18.20;96.70;;;;;;4942324;28;20047;-74
2023/04/30 00:17:55;;;;;;;7.80;6.30;;;18.20;96.70;;;;;;4926615;28;20047;-75
2023/04/30 00:20:23;;;;;;;9.55;6.95;;;18.10;96.70;;;;;;4943047;28;20027;-75
2023/04/30 00:23:11;;;;;;;7.00;6.30;;;18.10;96.70;;;;;;4953356;28;20043;-75
2023/04/30 00:25:39;;;;;;;8.88;6.47;;;18.00;96.70;;;;;;4962476;28;20054;-76
2023/04/30 00:28:08;;;;;;;8.30;6.78;;;18.00;96.70;;;;;;4944246;28;20170;-75
2023/04/30 00:30:36;;;;;;;6.55;5.90;;;17.90;96.70;;;;;;4943862;28;20505;-75
2023/04/30 00:33:04;;;;;;;6.75;5.85;;;17.90;96.70;;;;;;4942485;28;20066;-76
2023/04/30 00:35:33;;;;;;;7.70;6.15;;;17.90;96.70;;;;;;4944252;28;20482;-75
2023/04/30 00:38:01;;;;;;;7.80;6.22;;;17.90;96.70;;;;;;4939343;28;20449;-76
2023/04/30 00:40:33;;;;;;;7.22;5.97;;;17.90;96.70;;;;;;4943840;28;20336;-76
2023/04/30 00:43:02;;;;;;;8.15;6.15;;;17.80;96.70;;;;;;4944347;28;20056;-76
2023/04/30 00:45:30;;;;;;;7.18;6.45;;;17.80;96.70;;;;;;4942655;28;20130;-75
2023/04/30 00:47:59;;;;;;;6.28;5.68;;;17.80;96.70;;;;;;4943053;28;20643;-75
2023/04/30 00:50:28;;;;;;;8.07;6.22;;;17.80;96.70;;;;;;4942155;28;21181;-75
2023/04/30 00:52:58;;;;;;;8.27;7.03;;;17.80;96.70;;;;;;4941702;28;20058;-76
2023/04/30 00:55:27;;;;;;;7.32;6.53;;;17.80;96.70;;;;;;4942022;28;20047;-75
2023/04/30 00:57:57;;;;;;;7.47;6.40;;;17.70;96.70;;;;;;4942929;28;20468;-75
2023/04/30 01:00:26;;;;;;;7.10;5.93;;;17.80;96.70;;;;;;4940030;28;20049;-76
2023/04/30 01:02:56;;;;;;;8.38;6.70;;;17.80;96.70;;;;;;4942229;28;20448;-75
2023/04/30 01:05:25;;;;;;;7.45;6.63;;;17.80;96.70;;;;;;4939287;28;20058;-75
2023/04/30 01:07:55;;;;;;;8.15;6.60;;;17.70;96.70;;;;;;4941880;28;20453;-75
2023/04/30 01:10:29;;;;;;;7.53;6.18;;;17.70;96.70;;;;;;4941921;28;20051;-75
2023/04/30 01:13:05;;;;;;;6.97;6.03;;;17.60;96.70;;;;;;4943516;28;20048;-76
2023/04/30 01:15:35;;;;;;;;;;;17.60;96.70;;;;;;4942164;28;20143;-75
2023/04/30 01:18:09;;;;;;;8.00;6.05;;;17.60;96.70;;;;;;4957443;28;20467;-76
2023/04/30 01:20:43;;;;;;;6.43;5.75;;;17.60;96.70;;;;;;4941319;28;20102;-75
2023/04/30 01:23:19;;;;;;;7.47;6.53;;;17.60;96.70;;;;;;4941843;28;20054;-75
2023/04/30 01:26:07;;;;;;;8.97;6.30;;;17.60;96.70;;;;;;4941318;28;20118;-75
2023/04/30 01:28:39;;;;;;;5.95;5.35;;;17.50;96.70;;;;;;4925780;29;20302;-75
2023/04/30 01:31:12;;;;;;;6.35;5.70;;;17.40;96.70;;;;;;4942089;28;20835;-75
2023/04/30 01:33:41;;;;;;;6.93;6.22;;;17.40;96.70;;;;;;4942110;28;20051;-75
2023/04/30 01:36:19;;;;;;;6.10;5.30;;;17.40;96.70;;;;;;4942312;28;20055;-74
2023/04/30 01:39:08;;;;;;;7.00;6.30;;;17.40;96.70;;;;;;4937327;28;20043;-74
2023/04/30 01:41:47;;;;;;;7.65;6.43;;;17.40;96.70;;;;;;4940816;28;20069;-74
2023/04/30 01:44:31;;;;;;;7.57;6.25;;;17.40;96.70;;;;;;4942928;28;20054;-74
2023/04/30 01:47:06;;;;;;;9.15;6.80;;;17.40;96.70;;;;;;4942151;28;20051;-75
2023/04/30 01:49:43;;;;;;;7.68;6.40;;;17.40;96.70;;;;;;4940801;28;20539;-75
2023/04/30 01:52:19;;;;;;;8.20;7.03;;;17.40;96.70;;;;;;4942894;28;20051;-76
2023/04/30 01:54:52;;;;;;;9.80;7.03;;;17.40;96.70;;;;;;4941192;28;20051;-75
2023/04/30 01:57:26;;;;;;;8.23;6.57;;;17.40;96.70;;;;;;4940896;28;20539;-75
2023/04/30 01:59:57;;;;;;;12.23;6.50;;;17.40;96.70;;;;;;4941695;28;20058;-76
2023/04/30 02:02:25;;;;;;;7.38;6.65;;;17.40;96.70;;;;;;4925250;29;20051;-75
2023/04/30 02:04:54;;;;;;;7.07;6.45;;;17.30;96.70;;;;;;4941329;28;20055;-74
2023/04/30 02:07:37;;;;;;;8.88;6.93;;;17.30;96.70;;;;;;4940216;28;20055;-75
2023/04/30 02:10:06;;;;;;;6.15;5.47;;;17.30;96.70;;;;;;4942659;28;20066;-74
2023/04/30 02:12:34;;;;;;;6.07;5.38;;;17.20;96.70;;;;;;4941997;28;20039;-75
2023/04/30 02:15:06;;;;;;;5.97;5.47;;;17.20;96.70;;;;;;4942335;28;20051;-76
2023/04/30 02:17:34;;;;;;;6.75;5.50;;;17.30;96.70;;;;;;4940852;28;20039;-75
2023/04/30 02:20:03;;;;;;;6.30;5.70;;;17.30;96.70;;;;;;4940724;28;20146;-75
2023/04/30 02:22:31;;;;;;;6.80;6.20;;;17.20;96.70;;;;;;4940749;28;20051;-75
2023/04/30 02:25:00;;;;;;;8.05;6.15;;;17.20;96.70;;;;;;4942281;28;20466;-75
2023/04/30 02:27:30;;;;;;;9.32;6.15;;;17.20;96.70;;;;;;4943152;28;20040;-75
2023/04/30 02:29:59;;;;;;;8.45;6.55;;;17.20;96.70;;;;;;4941919;28;20047;-74
2023/04/30 02:32:29;;;;;;;19.73;7.32;;;17.10;96.70;;;;;;4938034;28;20135;-75
2023/04/30 02:34:57;;;;;;;17.08;7.43;;;17.10;96.70;;;;;;4940864;28;20067;-75
2023/04/30 02:37:25;;;;;;;9.75;7.07;;;17.10;96.70;;;;;;4941631;28;20055;-74
2023/04/30 02:39:53;;;;;;;7.05;6.35;;;17.10;96.70;;;;;;4942342;28;20158;-75
2023/04/30 02:42:21;;;;;;;9.43;6.93;;;17.20;96.70;;;;;;4941000;28;20047;-74
2023/04/30 02:44:49;;;;;;;6.82;6.20;;;17.10;96.70;;;;;;4940853;28;20079;-74
2023/04/30 02:47:17;;;;;;;15.23;7.15;;;17.10;96.70;;;;;;4941074;28;20039;-74
2023/04/30 02:49:47;;;;;;;7.57;6.57;;;17.20;96.70;;;;;;4944105;28;20043;-75
2023/04/30 02:52:15;;;;;;;10.98;7.57;;;17.10;96.70;;;;;;4942971;28;20142;-74
2023/04/30 02:54:43;;;;;;;11.18;7.15;;;17.10;96.70;;;;;;4944244;28;20067;-75
2023/04/30 02:57:11;;;;;;;17.40;7.57;;;17.10;96.70;;;;;;4944783;28;20047;-74
2023/04/30 02:59:39;;;;;;;16.55;8.10;;;17.10;96.70;;;;;;4946151;28;20043;-75
2023/04/30 03:02:07;;;;;;;8.73;7.13;;;16.90;96.70;;;;;;4927713;29;20134;-74
2023/04/30 03:04:38;;;;;;;27.92;7.85;;;16.90;96.70;;;;;;4944869;28;20043;-74
2023/04/30 03:07:07;;;;;;;11.70;8.07;;;16.90;96.70;;;;;;4943954;28;20054;-74
2023/04/30 03:09:36;;;;;;;17.25;7.07;;;16.90;96.70;;;;;;4944132;28;20101;-75
2023/04/30 03:12:05;;;;;;;12.48;6.95;;;17.00;96.70;;;;;;4944309;28;20509;-75
2023/04/30 03:14:33;;;;;;;11.75;6.85;;;17.00;96.70;;;;;;4943249;28;20054;-74
2023/04/30 03:17:01;;;;;;;9.65;6.93;;;17.00;96.70;;;;;;4927706;29;20408;-74
2023/04/30 03:19:29;;;;;;;14.98;7.05;;;16.90;96.70;;;;;;4945039;28;20130;-74
2023/04/30 03:21:57;;;;;;;14.23;6.90;;;16.90;96.70;;;;;;4942853;28;20047;-75
2023/04/30 03:24:26;;;;;;;17.77;7.22;;;16.80;96.70;;;;;;4942829;28;20035;-74
2023/04/30 03:26:55;;;;;;;19.77;7.30;;;16.90;96.70;;;;;;4945061;28;20067;-74
2023/04/30 03:29:23;;;;;;;18.77;6.70;;;16.80;96.70;;;;;;4943805;28;20051;-74
2023/04/30 03:31:51;;;;;;;10.65;7.05;;;16.80;96.70;;;;;;4944891;28;20039;-75
2023/04/30 03:34:19;;;;;;;7.28;6.55;;;16.80;96.70;;;;;;4945656;28;20133;-75
2023/04/30 03:36:47;;;;;;;7.32;6.63;;;16.80;96.70;;;;;;4945149;28;20055;-76
2023/04/30 03:39:16;;;;;;;17.80;6.82;;;16.90;96.70;;;;;;4944798;28;20047;-75
2023/04/30 03:41:45;;;;;;;13.18;6.55;;;16.90;96.70;;;;;;4928815;29;20607;-74
2023/04/30 03:44:16;;;;;;;8.02;6.88;;;16.80;96.70;;;;;;4943862;28;20059;-74
2023/04/30 03:46:44;;;;;;;6.70;6.10;;;16.90;96.70;;;;;;4943483;28;20067;-75
2023/04/30 03:49:12;;;;;;;6.32;5.75;;;16.80;96.70;;;;;;4943934;28;20062;-75
2023/04/30 03:51:41;;;;;;;6.30;5.80;;;16.90;96.70;;;;;;4944615;28;20126;-75
2023/04/30 03:54:09;;;;;;;5.95;5.45;;;16.80;96.70;;;;;;4943827;28;20493;-75
2023/04/30 03:56:38;;;;;;;6.13;5.63;;;16.80;96.70;;;;;;4944009;28;20066;-74
2023/04/30 03:59:07;;;;;;;5.25;4.75;;;16.80;96.70;;;;;;4942311;28;20574;-74
2023/04/30 04:01:35;;;;;;;5.00;4.60;;;16.80;96.70;;;;;;4940468;28;20047;-74
2023/04/30 04:04:04;;;;;;;5.43;4.93;;;16.80;96.70;;;;;;4943141;28;20043;-75
2023/04/30 04:06:33;;;;;;;5.03;4.57;;;16.80;96.70;;;;;;4942164;28;20047;-75
2023/04/30 04:09:03;;;;;;;4.55;4.15;;;16.80;96.70;;;;;;4927557;29;20058;-75
2023/04/30 04:11:31;;;;;;;5.80;5.30;;;16.80;96.70;;;;;;4941822;28;20126;-74
2023/04/30 04:13:59;;;;;;;6.00;5.40;;;16.70;96.70;;;;;;4942702;28;20047;-75
2023/04/30 04:16:29;;;;;;;5.95;5.45;;;16.60;96.70;;;;;;4926635;28;20576;-75
2023/04/30 04:18:57;;;;;;;5.63;5.15;;;16.60;96.70;;;;;;4942990;28;20130;-75
2023/04/30 04:21:25;;;;;;;5.80;5.22;;;16.60;96.70;;;;;;4941880;28;20054;-75
2023/04/30 04:23:55;;;;;;;5.10;4.65;;;16.60;96.70;;;;;;4943422;28;20043;-76
2023/04/30 04:26:24;;;;;;;5.60;5.10;;;16.60;96.70;;;;;;4925709;28;20047;-75
2023/04/30 04:28:52;;;;;;;4.70;4.30;;;16.60;96.70;;;;;;4944905;28;20126;-75
2023/04/30 04:31:21;;;;;;;5.18;4.70;;;16.60;96.70;;;;;;4942119;28;20077;-74
2023/04/30 04:33:56;;;;;;;5.30;4.78;;;16.60;96.70;;;;;;4926526;29;20050;-75
2023/04/30 04:36:26;;;;;;;5.40;5.00;;;16.70;96.70;;;;;;4927195;29;20051;-75
2023/04/30 04:39:01;;;;;;;5.57;5.07;;;16.70;96.70;;;;;;4941985;28;20071;-75
2023/04/30 04:41:31;;;;;;;5.78;5.18;;;16.80;96.70;;;;;;4942584;28;20066;-75
2023/04/30 04:44:00;;;;;;;5.05;4.65;;;16.80;96.70;;;;;;4926519;29;20139;-75
2023/04/30 04:46:30;;;;;;;5.22;4.80;;;16.80;96.70;;;;;;4942652;28;20106;-75
2023/04/30 04:49:00;;;;;;;6.43;5.72;;;16.90;96.70;;;;;;4943365;28;20073;-75
2023/04/30 04:51:28;;;;;;;5.25;4.85;;;17.00;96.70;;;;;;4942028;28;20052;-75
2023/04/30 04:53:56;;;;;;;5.85;5.20;;;17.00;96.70;;;;;;4941838;28;20129;-75
2023/04/30 04:56:25;;;;;;;5.85;5.35;;;17.00;96.70;;;;;;4942470;28;20054;-75
2023/04/30 04:58:53;;;;;;;8.65;5.60;;;16.90;96.70;;;;;;4925094;29;20090;-75
2023/04/30 05:01:21;;;;;;;6.68;6.07;;;16.90;96.70;;;;;;4942904;28;20146;-75
2023/04/30 05:03:49;;;;;;;6.22;5.63;;;16.90;96.70;;;;;;4942944;28;20055;-75
2023/04/30 05:06:20;;;;;;;6.47;5.78;;;17.00;96.70;;;;;;4942308;28;20505;-75
2023/04/30 05:08:48;;;;;;;6.30;5.75;;;17.10;96.70;;;;;;4942119;28;20077;-75
2023/04/30 05:11:16;;;;;;;6.25;5.72;;;17.00;96.70;;;;;;4941720;28;20047;-75
2023/04/30 05:13:44;;;;;;;6.07;5.55;;;16.80;96.70;;;;;;4942756;28;20058;-75
2023/04/30 05:16:12;;;;;;;6.63;5.93;;;16.90;96.70;;;;;;4941899;28;20058;-75
2023/04/30 05:18:41;;;;;;;7.13;6.45;;;17.00;96.70;;;;;;4941777;28;20114;-75
2023/04/30 05:21:09;;;;;;;7.28;6.55;;;17.00;96.70;;;;;;4940802;28;20055;-75
2023/04/30 05:23:39;;;;;;;6.43;5.82;;;17.10;96.70;;;;;;4925919;29;20474;-75
2023/04/30 05:26:07;;;;;;;7.78;6.97;;;17.10;96.70;;;;;;4941269;28;20150;-75
2023/04/30 05:28:35;;;;;;;6.60;6.07;;;17.20;96.70;;;;;;4941660;28;20533;-76
2023/04/30 05:31:03;;;;;;;7.97;6.72;;;17.30;96.70;;;;;;4942027;28;20058;-75
2023/04/30 05:33:30;;;;;;;7.05;6.45;;;17.30;96.70;;;;;;4941592;28;20486;-75
2023/04/30 05:35:58;;;;;;;6.88;6.28;;;17.20;96.70;;;;;;4941914;28;20051;-75
2023/04/30 05:38:26;;;;;;;7.57;6.85;;;17.30;96.70;;;;;;4940747;28;20054;-75
2023/04/30 05:40:56;;;;;;;8.02;7.22;;;17.30;96.70;;;;;;4923979;29;20053;-75
2023/04/30 05:43:24;;;;;;;7.10;6.43;;;17.40;96.70;;;;;;4940241;28;20377;-75
2023/04/30 05:45:52;;;;;;;7.00;6.40;;;17.40;96.70;;;;;;4941047;28;20043;-75
2023/04/30 05:48:20;;;;;;;7.40;6.70;;;17.40;96.70;;;;;;4942504;28;20136;-75
2023/04/30 05:50:48;;;;;;;7.00;6.40;;;17.50;96.70;;;;;;4940120;28;21340;-75
2023/04/30 05:53:16;;;;;;;7.20;6.50;;;17.60;96.70;;;;;;4941844;28;20039;-75
2023/04/30 05:55:44;;;;;;;7.35;6.72;;;17.70;96.70;;;;;;4939582;28;21002;-75
2023/04/30 05:58:24;;;;;;;6.72;6.13;;;17.70;96.70;;;;;;4941265;28;20515;-75
2023/04/30 06:00:52;;;;;;;6.47;5.88;;;17.70;96.70;;;;;;4940970;28;20060;-75
2023/04/30 06:03:21;;;;;;;6.47;5.78;;;17.80;96.70;;;;;;4940984;28;20039;-75
2023/04/30 06:05:49;;;;;;;8.93;8.00;;;17.90;96.70;;;;;;4924088;29;20047;-75
2023/04/30 06:08:17;;;;;;;7.80;6.95;;;17.90;96.70;;;;;;4939508;28;20059;-76
2023/04/30 06:10:45;;;;;;;8.77;7.30;;;17.80;96.70;;;;;;4939458;28;20629;-75
2023/04/30 06:13:15;;;;;;;8.77;7.93;;;17.90;96.70;;;;;;4939244;28;20047;-75
2023/04/30 06:15:43;;;;;;;7.95;7.00;;;17.80;96.70;;;;;;4940920;28;20107;-75
2023/04/30 06:18:13;;;;;;;8.27;7.47;;;17.80;96.70;;;;;;4925580;28;20075;-73
2023/04/30 06:20:41;;;;;;;9.27;7.93;;;17.90;96.70;;;;;;4939576;28;20137;-75
2023/04/30 06:23:08;;;;;;;7.68;6.97;;;18.00;96.70;;;;;;4939283;28;20146;-75
2023/04/30 06:25:36;;;;;;;8.07;7.28;;;18.00;96.70;;;;;;4942138;28;20047;-75
2023/04/30 06:28:07;;;;;;;8.38;7.03;;;18.00;96.70;;;;;;4944949;28;20053;-75
2023/04/30 06:30:36;;;;;;;8.40;7.18;;;18.10;96.70;;;;;;4943598;28;20107;-75
2023/04/30 06:33:04;;;;;;;8.40;7.60;;;18.10;96.70;;;;;;4943783;28;20454;-75
2023/04/30 06:35:33;;;;;;;7.90;6.63;;;18.20;96.70;;;;;;4945696;28;20046;-75
2023/04/30 06:38:01;;;;;;;8.10;7.20;;;18.30;96.70;;;;;;4928145;28;20488;-75
2023/04/30 06:40:29;;;;;;;7.88;7.07;;;18.30;96.70;;;;;;4944410;28;20563;-75
2023/04/30 06:42:57;;;;;;;7.93;7.10;;;18.30;96.70;;;;;;4944621;28;20043;-75
2023/04/30 06:45:26;;;;;;;9.38;7.18;;;18.30;96.70;;;;;;4942475;28;20563;-75
2023/04/30 06:47:56;;;;;;;7.47;6.65;;;18.40;96.70;;;;;;4945449;28;20047;-75
2023/04/30 06:50:30;;;;;;;8.90;6.78;;;18.40;96.70;;;;;;4945512;28;20073;-75
2023/04/30 06:52:58;;;;;;;7.32;6.30;;;18.50;96.70;;;;;;4928456;28;20051;-75
2023/04/30 06:55:26;;;;;;;6.55;5.95;;;18.50;96.70;;;;;;4946053;28;20157;-75
2023/04/30 06:57:56;;;;;;;8.93;6.20;;;18.60;96.70;;;;;;4944662;28;20058;-75
2023/04/30 07:00:25;;;;;;;7.10;5.93;;;18.60;96.70;;;;;;4944735;28;20049;-75
2023/04/30 07:02:56;;;;;;;5.85;5.22;;;18.70;96.70;;;;;;4944502;28;20553;-75
2023/04/30 07:05:24;;;;;;;6.30;5.75;;;18.70;96.70;;;;;;4944226;28;20457;-75
2023/04/30 07:07:52;;;;;;;7.82;6.07;;;18.80;96.70;;;;;;4945320;28;20576;-75
2023/04/30 07:10:20;;;;;;;7.13;6.32;;;18.90;96.70;;;;;;4944064;28;20051;-75
2023/04/30 07:12:48;;;;;;;6.93;5.68;;;18.90;96.70;;;;;;4945393;28;20563;-75
2023/04/30 07:15:16;;;;;;;6.03;5.20;;;18.90;96.70;;;;;;4944487;28;20135;-75
2023/04/30 07:17:45;;;;;;;6.50;5.05;;;19.00;96.70;;;;;;4944852;28;20043;-75
2023/04/30 07:20:15;;;;;;;7.32;5.63;;;19.00;96.70;;;;;;4943454;28;20094;-74
2023/04/30 07:22:44;;;;;;;6.05;5.35;;;19.10;96.70;;;;;;4944849;28;20039;-75
2023/04/30 07:25:13;;;;;;;9.30;5.55;;;19.10;96.70;;;;;;4944115;28;20524;-75
2023/04/30 07:27:41;;;;;;;5.93;5.40;;;19.20;96.70;;;;;;4945697;28;20050;-75
2023/04/30 07:30:09;;;;;;;7.45;5.47;;;19.30;96.70;;;;;;4944458;28;20117;-75
2023/04/30 07:32:39;;;;;;;7.13;6.03;;;19.40;96.70;;;;;;4944163;28;20057;-76
2023/04/30 07:35:08;;;;;;;8.48;5.13;;;19.50;96.70;;;;;;4942970;28;20039;-74
2023/04/30 07:37:38;;;;;;;7.90;5.45;;;19.60;96.70;;;;;;4942873;28;20043;-75
2023/04/30 07:40:11;;;;;;;5.53;4.72;;;19.70;96.70;;;;;;4944720;28;20039;-75
2023/04/30 07:42:46;;;;;;;5.60;4.97;;;19.70;96.70;;;;;;4944746;28;20051;-75
2023/04/30 07:45:14;;;;;;;5.30;4.80;;;19.80;96.70;;;;;;4944205;28;20043;-75
2023/04/30 07:47:43;;;;;;;6.65;5.25;;;19.80;96.70;;;;;;4942940;28;20051;-75
2023/04/30 07:50:11;;;;;;;5.25;4.63;;;19.80;96.70;;;;;;4945162;28;20043;-75
2023/04/30 07:52:41;;;;;;;9.30;5.28;;;19.90;96.70;;;;;;4943870;28;20068;-75
2023/04/30 07:55:09;;;;;;;5.70;4.30;;;19.90;96.70;;;;;;4945631;28;20769;-76
2023/04/30 07:57:38;;;;;;;4.65;3.35;;;20.00;96.70;;;;;;4946251;28;20605;-74
2023/04/30 08:00:07;;;;;;;3.67;3.30;;;20.20;96.70;;;;;;4945894;28;20054;-74
2023/04/30 08:02:38;;;;;;;4.78;2.83;;;20.30;96.70;;;;;;4944972;28;20169;-75
2023/04/30 08:05:08;;;;;;;4.22;2.10;;;20.40;96.70;;;;;;4945853;28;20050;-75
2023/04/30 08:07:36;;;;;;;6.05;2.00;;;20.40;96.70;;;;;;4943619;28;20059;-76
2023/04/30 08:10:06;;;;;;;2.28;1.90;;;20.50;96.70;;;;;;4938810;28;20513;-75
2023/04/30 08:12:36;;;;;;;3.80;1.90;;;20.50;96.70;;;;;;4944149;28;20062;-75
2023/04/30 08:15:05;;;;;;;2.88;1.80;;;20.60;96.70;;;;;;4941571;28;20039;-75
2023/04/30 08:17:33;;;;;;;3.05;1.50;;;20.60;96.70;;;;;;4944590;28;20804;-75
2023/04/30 08:20:03;;;;;;;1.70;1.58;;;20.80;96.70;;;;;;4944238;28;20238;-74
2023/04/30 08:22:31;;;;;;;2.72;1.63;;;20.90;96.70;;;;;;4945133;28;20043;-74
2023/04/30 08:25:00;;;;;;;3.05;1.80;;;21.10;96.70;;;;;;4940135;28;20472;-74
2023/04/30 08:27:31;;;;;;;1.58;1.27;;;21.10;96.70;;;;;;4940987;28;20047;-75
2023/04/30 08:29:59;;;;;;;3.92;1.90;;;21.20;96.70;;;;;;4944916;28;20035;-74
2023/04/30 08:32:27;;;;;;;1.80;1.50;;;21.20;96.70;;;;;;4942747;28;20220;-73
2023/04/30 08:34:55;;;;;;;2.42;1.88;;;21.10;96.70;;;;;;4945275;28;20131;-74
2023/04/30 08:37:23;;;;;;;1.98;1.70;;;21.20;96.70;;;;;;4944704;28;20063;-74
2023/04/30 08:39:51;;;;;;;2.38;1.70;;;21.10;96.70;;;;;;4945751;28;20135;-73
2023/04/30 08:42:23;;;;;;;4.05;2.03;;;21.10;96.70;;;;;;4944119;28;20051;-73
2023/04/30 08:44:53;;;;;;;2.13;1.80;;;21.00;96.70;;;;;;4943555;28;20122;-74
2023/04/30 08:47:23;;;;;;;2.28;1.88;;;21.00;96.70;;;;;;4943432;28;20485;-76
2023/04/30 08:49:51;;;;;;;3.35;2.15;;;20.90;96.70;;;;;;4945194;28;20057;-74
2023/04/30 08:52:20;;;;;;;3.92;2.13;;;20.90;96.70;;;;;;4944452;28;20501;-75
2023/04/30 08:54:51;;;;;;;2.20;1.98;;;21.10;96.70;;;;;;4945411;28;20497;-74
2023/04/30 08:57:19;;;;;;;2.75;2.00;;;21.30;96.70;;;;;;4942665;28;20047;-74
2023/04/30 08:59:47;;;;;;;3.70;2.30;;;21.40;96.70;;;;;;4943774;28;20386;-74
2023/04/30 09:02:16;;;;;;;2.20;2.00;;;21.30;96.70;;;;;;4942445;28;20047;-73
2023/04/30 09:04:45;;;;;;;2.42;1.95;;;21.30;96.70;;;;;;4942850;28;20043;-73
2023/04/30 09:07:13;;;;;;;2.72;2.15;;;21.30;96.70;;;;;;4945207;28;20063;-72
2023/04/30 09:09:41;;;;;;;3.85;2.00;;;21.30;96.70;;;;;;4945259;28;20474;-73
2023/04/30 09:12:13;;;;;;;3.75;2.20;;;21.40;96.70;;;;;;4944349;28;20051;-74
2023/04/30 09:14:58;;;;;;;3.97;2.10;;;21.40;96.70;;;;;;4945046;28;20047;-73
2023/04/30 09:17:28;;;;;;;3.72;2.80;;;21.40;96.70;;;;;;4943374;28;20083;-73
2023/04/30 09:20:06;;;;;;;2.55;2.10;;;21.40;96.70;;;;;;4944778;28;20051;-73
2023/04/30 09:22:35;;;;;;;6.50;2.50;;;21.60;96.70;;;;;;4940403;28;20043;-74
2023/04/30 09:25:03;;;;;;;3.72;2.70;;;21.70;96.70;;;;;;4941927;28;20393;-74
2023/04/30 09:27:31;;;;;;;4.85;2.30;;;22.00;96.70;;;;;;4942286;28;20043;-73
2023/04/30 09:29:59;;;;;;;2.67;2.17;;;22.00;96.70;;;;;;4943613;28;20047;-74
2023/04/30 09:32:28;;;;;;;4.05;2.85;;;22.10;96.70;;;;;;4942653;28;20055;-74
2023/04/30 09:34:56;;;;;;;4.20;2.75;;;22.10;96.70;;;;;;4944689;28;20045;-73
2023/04/30 09:37:35;;;;;;;6.20;3.08;;;22.20;96.70;;;;;;4942513;28;20477;-73
2023/04/30 09:40:03;;;;;;;3.30;2.22;;;22.30;96.70;;;;;;4936981;28;20098;-74
2023/04/30 09:42:31;;;;;;;4.70;2.28;;;22.50;96.70;;;;;;4943865;28;20122;-72
2023/04/30 09:44:59;;;;;;;3.13;2.08;;;22.70;96.70;;;;;;4943836;28;20051;-74
2023/04/30 09:47:31;;;;;;;3.15;2.05;;;22.90;96.70;;;;;;4943878;28;20110;-73
2023/04/30 09:49:59;;;;;;;2.45;2.25;;;22.90;96.70;;;;;;4943338;28;20138;-73
2023/04/30 09:52:39;;;;;;;2.53;2.33;;;22.80;96.70;;;;;;4939248;28;20067;-73
2023/04/30 09:55:08;;;;;;;1.98;1.58;;;22.80;96.70;;;;;;4893877;29;20787;-73
2023/04/30 09:57:36;;;;;;;2.60;2.05;;;22.70;96.70;;;;;;4937980;28;20042;-74
2023/04/30 10:00:07;;;;;;;4.50;2.30;;;22.70;96.70;;;;;;4942914;28;20161;-73
2023/04/30 10:02:37;;;;;;;3.92;1.90;;;22.60;96.70;;;;;;4942303;28;20086;-73
2023/04/30 10:05:06;;;;;;;2.78;2.40;;;22.60;96.70;;;;;;4942989;28;20054;-73
2023/04/30 10:07:37;;;;;;;3.47;2.50;;;22.60;96.70;;;;;;4940415;28;20057;-74
2023/04/30 10:10:08;;;;;;;3.22;2.45;;;22.80;96.70;;;;;;4942157;28;20057;-73
2023/04/30 10:12:42;;;;;;;3.58;2.30;;;23.00;96.70;;;;;;4942241;28;20075;-72
2023/04/30 10:15:14;;;;;;;5.25;2.50;;;23.00;96.70;;;;;;4936035;28;20047;-73
2023/04/30 10:17:49;;;;;;;2.88;2.08;;;23.00;96.70;;;;;;4944047;28;20043;-73
2023/04/30 10:20:18;;;;;;;2.60;2.15;;;22.80;96.70;;;;;;4943593;28;20048;-73
2023/04/30 10:22:46;;;;;;;4.65;1.92;;;22.70;96.70;;;;;;4941006;28;20039;-72
2023/04/30 10:25:15;;;;;;;3.47;2.30;;;22.80;96.70;;;;;;4941882;28;20043;-73
2023/04/30 10:27:43;;;;;;;5.03;2.33;;;22.90;96.70;;;;;;4943320;28;20043;-74
2023/04/30 10:30:12;;;;;;;2.55;2.20;;;22.90;96.70;;;;;;4942132;28;20630;-74
2023/04/30 10:32:56;;;;;;;2.83;2.00;;;22.90;96.70;;;;;;4942005;28;20637;-73
2023/04/30 10:35:28;;;;;;;3.42;1.80;;;22.90;96.70;;;;;;4941414;28;20047;-73
2023/04/30 10:38:03;;;;;;;2.53;1.98;;;23.00;96.70;;;;;;4939930;28;20484;-74
2023/04/30 10:40:36;;;;;;;1.98;1.77;;;23.10;96.70;;;;;;4939046;28;20501;-73
2023/04/30 10:43:03;;;;;;;4.15;1.80;;;23.10;96.70;;;;;;4942557;28;20046;-73
2023/04/30 10:45:36;;;;;;;3.40;1.95;;;23.20;96.70;;;;;;4941619;28;20126;-74
2023/04/30 10:48:06;;;;;;;2.53;1.77;;;23.20;96.70;;;;;;4936191;28;20043;-73
2023/04/30 10:50:40;;;;;;;2.40;1.90;;;23.10;96.70;;;;;;4941417;28;20122;-74
2023/04/30 10:53:14;;;;;;;3.90;2.10;;;23.30;96.70;;;;;;4941784;28;20127;-73
2023/04/30 10:55:47;;;;;;;3.63;2.03;;;23.40;96.70;;;;;;4942137;28;20043;-73
2023/04/30 10:58:25;;;;;;;2.58;1.77;;;23.20;96.70;;;;;;4934653;28;20062;-73
2023/04/30 11:01:01;;;;;;;3.55;1.60;;;23.40;96.70;;;;;;4943284;28;20051;-73
2023/04/30 11:03:33;;;;;;;3.08;1.88;;;23.50;96.70;;;;;;4943380;28;20583;-73
2023/04/30 11:06:07;;;;;;;2.92;1.70;;;23.40;96.70;;;;;;4941279;28;20122;-72
2023/04/30 11:08:37;;;;;;;3.75;1.88;;;23.30;96.70;;;;;;4943399;28;20059;-73
2023/04/30 11:11:07;;;;;;;1.92;1.35;;;23.30;96.70;;;;;;4946319;28;20122;-73
2023/04/30 11:13:40;;;;;;;3.38;1.55;;;23.60;96.70;;;;;;4945708;28;20079;-73
2023/04/30 11:16:10;;;;;;;3.13;1.85;;;24.00;96.70;;;;;;4946105;28;20458;-73
2023/04/30 11:18:44;;;;;;;3.03;1.80;;;24.20;96.70;;;;;;4946652;28;20082;-73
2023/04/30 11:21:12;;;;;;;2.92;1.88;;;24.20;96.70;;;;;;4946740;28;20043;-73
2023/04/30 11:23:42;;;;;;;1.92;1.23;;;24.10;96.70;;;;;;4946555;28;20043;-73
2023/04/30 11:26:10;;;;;;;3.97;1.73;;;24.20;96.70;;;;;;4945001;28;20071;-73
2023/04/30 11:28:38;;;;;;;3.45;1.30;;;24.30;96.70;;;;;;4945061;28;20074;-73
2023/04/30 11:31:06;;;;;;;2.50;1.55;;;24.50;96.70;;;;;;4944963;28;20082;-73
2023/04/30 11:33:34;;;;;;;5.57;1.63;;;24.70;96.70;;;;;;4945100;28;20051;-73
2023/04/30 11:36:05;;;;;;;2.53;1.60;;;24.70;96.70;;;;;;4944998;28;20064;-73
2023/04/30 11:38:35;;;;;;;5.85;1.50;;;24.70;96.70;;;;;;4944381;28;20047;-73
2023/04/30 11:41:03;;;;;;;3.33;1.42;;;24.70;96.70;;;;;;4944160;28;20047;-73
2023/04/30 11:43:33;;;;;;;3.45;1.30;;;24.70;96.70;;;;;;4938306;28;20058;-73
2023/04/30 11:46:11;;;;;;;3.42;1.50;;;25.00;96.70;;;;;;4946250;28;20548;-73
2023/04/30 11:48:41;;;;;;;2.22;1.63;;;25.10;96.70;;;;;;4945090;28;20475;-74
2023/04/30 11:51:18;;;;;;;3.75;2.30;;;25.00;96.70;;;;;;4945832;28;20133;-74
2023/04/30 11:53:47;;;;;;;3.60;1.55;;;25.00;96.70;;;;;;4946395;28;20483;-73
2023/04/30 11:56:19;;;;;;;2.97;1.50;;;24.90;96.70;;;;;;4945436;28;20080;-73
2023/04/30 11:58:48;;;;;;;2.65;1.60;;;25.10;96.70;;;;;;4946086;28;20047;-73
2023/04/30 12:01:17;;;;;;;2.15;1.42;;;25.20;96.70;;;;;;4945715;28;20047;-73
2023/04/30 12:03:47;;;;;;;2.05;1.85;;;25.20;96.70;;;;;;4943844;28;20043;-73
2023/04/30 12:06:24;;;;;;;1.80;1.27;;;25.30;96.70;;;;;;4921201;28;20054;-72
2023/04/30 12:08:53;;;;;;;1.83;1.60;;;25.30;96.70;;;;;;4907732;29;20457;-73
2023/04/30 12:11:24;;;;;;;2.00;1.35;;;25.40;96.70;;;;;;4906027;29;20516;-72
2023/04/30 12:13:54;;;;;;;3.28;1.15;;;25.60;96.70;;;;;;4905941;29;20052;-74
2023/04/30 12:16:24;;;;;;;2.78;1.27;;;25.60;96.70;;;;;;4906113;29;20510;-73
2023/04/30 12:18:52;;;;;;;3.72;1.30;;;25.50;96.70;;;;;;4907396;29;20052;-73
2023/04/30 12:21:22;;;;;;;2.88;1.30;;;25.50;96.70;;;;;;4905282;29;20040;-73
2023/04/30 12:23:50;;;;;;;2.45;1.42;;;25.60;96.70;;;;;;4907082;29;20056;-73
2023/04/30 12:26:18;;;;;;;2.88;1.33;;;25.70;96.70;;;;;;4905623;29;20071;-73
2023/04/30 12:28:48;;;;;;;1.80;1.40;;;25.80;96.70;;;;;;4905922;29;20048;-73
2023/04/30 12:31:18;;;;;;;2.63;1.33;;;25.70;96.70;;;;;;4907832;29;20062;-72
2023/04/30 12:33:54;;;;;;;2.72;1.42;;;25.60;96.70;;;;;;4905972;29;20393;-73
2023/04/30 12:36:49;;;;;;;7.18;1.55;;;25.80;96.70;;;;;;4906593;29;20131;-72
2023/04/30 12:39:20;;;;;;;3.00;1.40;;;26.10;96.70;;;;;;4907340;29;20190;-73
2023/04/30 12:41:59;;;;;;;4.75;1.20;;;26.20;96.70;;;;;;4905546;29;20052;-73
2023/04/30 12:44:28;;;;;;;2.75;1.40;;;26.10;96.70;;;;;;4905890;29;20056;-72
2023/04/30 12:46:56;;;;;;;4.97;1.60;;;26.00;96.70;;;;;;4906967;29;20044;-73
2023/04/30 12:49:26;;;;;;;1.92;1.13;;;26.20;96.70;;;;;;4903721;29;20044;-74
2023/04/30 12:52:01;;;;;;;1.83;1.10;;;26.30;96.70;;;;;;4906848;29;20055;-73
2023/04/30 12:54:33;;;;;;;3.15;1.70;;;26.40;96.70;;;;;;4907234;29;20044;-73
2023/04/30 12:57:03;;;;;;;3.95;1.30;;;26.40;96.70;;;;;;4904666;29;20058;-72
2023/04/30 12:59:32;;;;;;;2.15;1.10;;;26.50;96.70;;;;;;4900599;29;20509;-72